Time;durP1;ratioP1;P1;durP2;ratioP2;P2;SDS_P1;SDS_P2;PMS_P1;PMS_P2;Temp;Humidity;BMP_temperature;BMP_pressure;BME280_temperature;BME280_humidity;BME280_pressure;Samples;Min_cycle;Max_cycle;Signal;HPM_P1;HPM_P2
2023/09/19 00:01:33;;;;;;;11.82;6.15;;;13.10;99.90;;;;;;4881556;29;20804;-92
2023/09/19 00:03:59;;;;;;;13.20;6.85;;;13.30;99.90;;;;;;4881172;29;20844;-92
2023/09/19 00:06:26;;;;;;;14.82;6.28;;;13.20;99.90;;;;;;4880969;29;20409;-94
2023/09/19 00:08:52;;;;;;;14.27;6.35;;;13.40;99.90;;;;;;4895401;29;20433;-91
2023/09/19 00:11:18;;;;;;;17.90;7.90;;;13.50;99.90;;;;;;4880654;29;20421;-90
2023/09/19 00:13:44;;;;;;;15.68;7.55;;;13.30;99.90;;;;;;4879648;29;20419;-92
2023/09/19 00:16:11;;;;;;;17.10;5.60;;;13.40;99.90;;;;;;4880033;29;20920;-92
2023/09/19 00:18:39;;;;;;;13.82;4.78;;;13.50;99.90;;;;;;4879508;29;20613;-93
2023/09/19 00:21:05;;;;;;;11.80;5.10;;;13.60;99.90;;;;;;4880351;29;20413;-92
2023/09/19 00:23:33;;;;;;;12.85;6.15;;;13.50;99.90;;;;;;4879108;29;20502;-91
2023/09/19 00:26:00;;;;;;;16.40;7.40;;;13.30;99.90;;;;;;4880087;29;20998;-91
2023/09/19 00:28:26;;;;;;;14.30;6.88;;;13.60;99.90;;;;;;4880068;29;20630;-91
2023/09/19 00:30:54;;;;;;;17.88;5.20;;;13.30;99.90;;;;;;4879636;29;20543;-94
2023/09/19 00:33:20;;;;;;;14.02;5.57;;;13.30;99.90;;;;;;4880107;29;20428;-92
2023/09/19 00:35:53;;;;;;;14.87;5.70;;;13.60;99.90;;;;;;4878945;29;20421;-92
2023/09/19 00:38:22;;;;;;;14.83;5.07;;;13.40;99.90;;;;;;4880463;29;20500;-93
2023/09/19 00:40:51;;;;;;;13.10;3.63;;;13.80;99.90;;;;;;4879900;29;20417;-91
2023/09/19 00:43:16;;;;;;;13.27;3.35;;;13.70;99.90;;;;;;4879594;29;20775;-93
2023/09/19 00:45:51;;;;;;;11.55;3.13;;;13.50;99.90;;;;;;4879786;29;20877;-94
2023/09/19 00:48:18;;;;;;;12.18;2.45;;;13.80;99.90;;;;;;4879228;29;20463;-93
2023/09/19 00:50:48;;;;;;;14.75;3.38;;;13.50;99.90;;;;;;4879845;29;20417;-94
2023/09/19 00:53:18;;;;;;;13.10;2.50;;;13.50;99.90;;;;;;4878606;29;20425;-92
2023/09/19 00:55:45;;;;;;;14.05;2.55;;;12.80;99.90;;;;;;4879789;29;20492;-93
2023/09/19 00:58:11;;;;;;;12.27;3.13;;;13.40;99.90;;;;;;4878825;29;20456;-92
2023/09/19 01:00:38;;;;;;;12.65;3.38;;;12.90;99.90;;;;;;4879354;29;20826;-92
2023/09/19 01:03:04;;;;;;;11.80;2.50;;;13.90;99.90;;;;;;4879387;29;20452;-94
2023/09/19 01:05:30;;;;;;;13.37;2.30;;;13.00;99.90;;;;;;4878631;29;20549;-92
2023/09/19 01:07:56;;;;;;;11.32;2.85;;;13.20;99.90;;;;;;4879366;29;20480;-92
2023/09/19 01:10:22;;;;;;;10.60;2.50;;;13.20;99.90;;;;;;4878350;29;20417;-94
2023/09/19 01:12:51;;;;;;;12.13;2.60;;;13.20;99.90;;;;;;4879105;29;20428;-94
2023/09/19 01:15:42;;;;;;;12.40;2.67;;;12.80;99.90;;;;;;4878264;29;20512;-94
2023/09/19 01:18:36;;;;;;;13.52;2.97;;;13.10;99.90;;;;;;4878901;29;20421;-94
2023/09/19 01:21:37;;;;;;;11.15;3.00;;;13.30;99.90;;;;;;4879140;29;20421;-93
2023/09/19 01:24:21;;;;;;;11.32;2.70;;;12.70;99.90;;;;;;4877930;29;20429;-92
2023/09/19 01:27:34;;;;;;;11.38;2.83;;;12.60;99.90;;;;;;4878182;29;20425;-94
2023/09/19 01:30:11;;;;;;;11.45;2.83;;;12.60;99.90;;;;;;4878929;29;20462;-93
2023/09/19 01:32:38;;;;;;;14.43;3.63;;;12.50;99.90;;;;;;4877574;29;20414;-94
2023/09/19 01:35:04;;;;;;;12.73;2.92;;;12.60;99.90;;;;;;4878313;29;21293;-92
2023/09/19 01:37:31;;;;;;;13.15;3.00;;;12.40;99.90;;;;;;4878484;29;20468;-93
2023/09/19 01:40:05;;;;;;;12.73;3.40;;;12.30;99.90;;;;;;4878790;29;20825;-95
2023/09/19 01:42:50;;;;;;;11.82;2.90;;;12.60;99.90;;;;;;4879014;29;20429;-93
2023/09/19 01:45:18;;;;;;;11.05;2.85;;;12.20;99.90;;;;;;4877526;29;20417;-92
2023/09/19 01:47:56;;;;;;;10.30;2.60;;;12.30;99.90;;;;;;4878238;29;20869;-94
2023/09/19 01:50:40;;;;;;;11.43;2.35;;;12.10;99.90;;;;;;4878249;29;21174;-91
2023/09/19 01:53:33;;;;;;;14.50;3.13;;;12.20;99.90;;;;;;4878267;29;20432;-92
2023/09/19 01:56:01;;;;;;;9.55;1.80;;;12.20;99.90;;;;;;4877327;29;20496;-94
2023/09/19 01:58:34;;;;;;;13.68;2.25;;;12.30;99.90;;;;;;4877773;29;20412;-93
2023/09/19 02:01:01;;;;;;;10.15;2.40;;;12.30;99.90;;;;;;4878159;29;20432;-93
2023/09/19 02:03:28;;;;;;;13.98;2.03;;;12.90;99.90;;;;;;4879100;29;20428;-92
2023/09/19 02:05:54;;;;;;;14.18;2.40;;;12.40;99.90;;;;;;4877853;29;20528;-91
2023/09/19 02:08:25;;;;;;;9.52;1.88;;;12.30;99.90;;;;;;4878559;29;20445;-92
2023/09/19 02:10:52;;;;;;;14.48;2.47;;;12.40;99.90;;;;;;4892721;29;20424;-92
2023/09/19 02:13:27;;;;;;;9.98;2.00;;;12.40;99.90;;;;;;4878692;29;20456;-90
2023/09/19 02:15:53;;;;;;;12.38;2.00;;;12.10;99.90;;;;;;4877798;29;20417;-92
2023/09/19 02:18:19;;;;;;;12.15;2.00;;;12.00;99.90;;;;;;4878458;29;20425;-92
2023/09/19 02:20:45;;;;;;;12.15;2.63;;;12.00;99.90;;;;;;4893500;29;20467;-92
2023/09/19 02:23:12;;;;;;;8.98;1.50;;;11.80;99.90;;;;;;4877755;29;20417;-92
2023/09/19 02:25:40;;;;;;;10.20;1.50;;;12.00;99.90;;;;;;4878460;29;20493;-93
2023/09/19 02:28:06;;;;;;;9.37;1.60;;;12.10;99.90;;;;;;4877368;29;20558;-93
2023/09/19 02:30:32;;;;;;;12.55;2.45;;;12.00;99.90;;;;;;4878095;29;20425;-93
2023/09/19 02:33:01;;;;;;;11.23;2.10;;;12.20;99.90;;;;;;4876824;29;20966;-93
2023/09/19 02:35:27;;;;;;;11.17;1.47;;;12.40;99.90;;;;;;4877821;29;20412;-91
2023/09/19 02:37:53;;;;;;;10.35;1.65;;;11.60;99.90;;;;;;4877380;29;20424;-93
2023/09/19 02:40:19;;;;;;;13.10;1.58;;;12.20;99.90;;;;;;4879266;29;20418;-93
2023/09/19 02:42:48;;;;;;;13.80;1.73;;;12.20;99.90;;;;;;4879265;29;20999;-93
2023/09/19 02:45:15;;;;;;;9.40;1.70;;;12.10;99.90;;;;;;4877401;29;20417;-94
2023/09/19 02:47:41;;;;;;;13.18;1.60;;;12.20;99.90;;;;;;4878088;29;20516;-93
2023/09/19 02:50:06;;;;;;;10.03;1.63;;;12.50;99.90;;;;;;4877108;29;20512;-93
2023/09/19 02:52:32;;;;;;;9.93;1.70;;;12.40;99.90;;;;;;4878851;29;20413;-93
2023/09/19 02:54:58;;;;;;;7.75;1.35;;;12.40;99.90;;;;;;4877093;29;20418;-93
2023/09/19 02:57:24;;;;;;;10.63;1.27;;;12.20;99.90;;;;;;4877911;29;20401;-93
2023/09/19 02:59:49;;;;;;;8.17;1.10;;;12.60;99.90;;;;;;4877456;29;20410;-94
2023/09/19 03:02:15;;;;;;;10.15;1.55;;;12.90;99.90;;;;;;4877727;29;20413;-91
2023/09/19 03:04:41;;;;;;;9.60;1.40;;;12.70;99.90;;;;;;4879264;29;20432;-94
2023/09/19 03:07:07;;;;;;;9.32;1.15;;;12.60;99.90;;;;;;4880098;29;20529;-92
2023/09/19 03:09:39;;;;;;;10.60;0.90;;;12.20;99.90;;;;;;4883993;29;20857;-94
2023/09/19 03:12:06;;;;;;;13.90;1.70;;;12.50;99.90;;;;;;4866840;29;20429;-94
2023/09/19 03:14:35;;;;;;;12.65;1.60;;;12.70;99.90;;;;;;4889225;29;20432;-94
2023/09/19 03:17:04;;;;;;;8.70;1.23;;;12.60;99.90;;;;;;4882148;29;20409;-93
2023/09/19 03:19:30;;;;;;;9.07;1.50;;;12.70;99.90;;;;;;4881732;29;20505;-93
2023/09/19 03:21:57;;;;;;;8.13;1.30;;;12.90;99.90;;;;;;4881818;29;20463;-94
2023/09/19 03:24:23;;;;;;;10.23;1.43;;;12.60;99.90;;;;;;4882019;29;20417;-95
2023/09/19 03:26:52;;;;;;;11.27;1.50;;;12.60;99.90;;;;;;4881550;29;20416;-94
2023/09/19 03:29:20;;;;;;;8.98;1.67;;;12.20;99.90;;;;;;4881571;29;20421;-93
2023/09/19 03:31:54;;;;;;;12.02;1.40;;;12.50;99.90;;;;;;4881130;29;20489;-95
2023/09/19 03:34:20;;;;;;;12.90;1.73;;;12.70;99.90;;;;;;4880753;29;20461;-93
2023/09/19 03:36:46;;;;;;;9.60;1.60;;;12.40;99.90;;;;;;4882673;29;20912;-94
2023/09/19 03:39:12;;;;;;;9.53;1.53;;;12.20;99.90;;;;;;4881343;29;20472;-94
2023/09/19 03:41:38;;;;;;;8.38;1.13;;;12.40;99.90;;;;;;4880955;29;20449;-94
2023/09/19 03:44:04;;;;;;;10.10;1.58;;;12.30;99.90;;;;;;4880621;29;20488;-93
2023/09/19 03:46:30;;;;;;;8.53;1.20;;;12.30;99.90;;;;;;4880199;29;20500;-93
2023/09/19 03:48:56;;;;;;;8.35;1.45;;;12.50;99.90;;;;;;4880406;29;20448;-96
2023/09/19 03:51:21;;;;;;;9.50;1.25;;;12.40;99.90;;;;;;4879756;29;20780;-93
2023/09/19 03:53:49;;;;;;;11.43;1.30;;;12.90;99.90;;;;;;4880838;29;20421;-94
2023/09/19 03:56:15;;;;;;;8.57;1.08;;;12.00;99.90;;;;;;4879975;29;20423;-94
2023/09/19 03:58:40;;;;;;;10.40;1.38;;;12.60;99.90;;;;;;4880654;29;20888;-93
2023/09/19 04:01:06;;;;;;;10.17;1.20;;;12.60;99.90;;;;;;4880344;29;20421;-94
2023/09/19 04:03:45;;;;;;;10.55;1.30;;;12.70;99.90;;;;;;4880912;29;20542;-93
2023/09/19 04:06:16;;;;;;;13.63;1.85;;;12.50;99.90;;;;;;4881615;29;20413;-94
2023/09/19 04:08:47;;;;;;;10.13;0.80;;;12.90;99.90;;;;;;4879989;29;20762;-94
2023/09/19 04:11:13;;;;;;;9.35;1.25;;;12.70;99.90;;;;;;4880956;29;20987;-93
2023/09/19 04:13:41;;;;;;;9.48;1.08;;;12.50;99.90;;;;;;4879355;29;20421;-94
2023/09/19 04:16:06;;;;;;;9.02;1.00;;;12.50;99.90;;;;;;4865354;29;20464;-93
2023/09/19 04:18:33;;;;;;;8.77;1.13;;;12.50;99.90;;;;;;4878885;29;20924;-93
2023/09/19 04:21:02;;;;;;;11.40;1.85;;;12.50;99.90;;;;;;4880480;29;20943;-94
2023/09/19 04:23:28;;;;;;;11.80;1.30;;;12.10;99.90;;;;;;4880450;29;20441;-93
2023/09/19 04:25:53;;;;;;;9.40;1.20;;;12.60;99.90;;;;;;4879831;29;20542;-94
2023/09/19 04:28:19;;;;;;;12.10;1.50;;;12.60;99.90;;;;;;4880220;29;20468;-94
2023/09/19 04:30:45;;;;;;;9.98;1.30;;;12.90;99.90;;;;;;4878941;29;20790;-94
2023/09/19 04:33:14;;;;;;;9.98;1.25;;;12.70;99.90;;;;;;4880875;29;20462;-93
2023/09/19 04:35:42;;;;;;;7.75;1.40;;;13.20;99.90;;;;;;4878754;29;20504;-92
2023/09/19 04:38:08;;;;;;;8.15;1.20;;;12.70;99.90;;;;;;4880143;29;20500;-93
2023/09/19 04:40:34;;;;;;;11.10;1.35;;;12.70;99.90;;;;;;4879514;29;20417;-92
2023/09/19 04:43:00;;;;;;;10.13;1.42;;;12.90;99.90;;;;;;4879682;29;20432;-92
2023/09/19 04:45:29;;;;;;;10.95;1.30;;;13.10;99.90;;;;;;4879855;29;20418;-93
2023/09/19 04:47:56;;;;;;;12.38;1.40;;;13.10;99.90;;;;;;4880760;29;20437;-93
2023/09/19 04:50:23;;;;;;;10.52;1.58;;;12.80;99.90;;;;;;4880450;29;20417;-93
2023/09/19 04:52:52;;;;;;;13.83;1.73;;;12.80;99.90;;;;;;4880486;29;20445;-93
2023/09/19 04:55:18;;;;;;;10.10;1.35;;;12.90;99.90;;;;;;4879672;29;20409;-92
2023/09/19 04:57:49;;;;;;;11.13;1.00;;;12.80;99.90;;;;;;4879211;29;21304;-91
2023/09/19 05:00:19;;;;;;;9.40;1.57;;;12.90;99.90;;;;;;4879760;29;20431;-94
2023/09/19 05:02:45;;;;;;;11.88;1.20;;;12.90;99.90;;;;;;4878993;29;20488;-93
2023/09/19 05:05:12;;;;;;;8.38;1.05;;;13.20;99.90;;;;;;4879899;29;20448;-93
2023/09/19 05:07:46;;;;;;;9.80;1.00;;;13.40;99.90;;;;;;4880687;29;20517;-95
2023/09/19 05:10:12;;;;;;;9.10;1.30;;;13.10;99.90;;;;;;4880397;29;20453;-94
2023/09/19 05:12:43;;;;;;;10.95;1.38;;;13.30;99.90;;;;;;4881803;29;20661;-94
2023/09/19 05:15:09;;;;;;;10.87;1.17;;;12.70;99.90;;;;;;4880983;29;20420;-95
2023/09/19 05:17:35;;;;;;;9.83;0.90;;;13.50;99.90;;;;;;4880636;29;20414;-95
2023/09/19 05:20:16;;;;;;;10.67;1.20;;;13.50;99.90;;;;;;4882126;29;20417;-94
2023/09/19 05:22:43;;;;;;;11.43;1.67;;;13.30;99.90;;;;;;4885073;29;20917;-94
2023/09/19 05:25:17;;;;;;;10.52;1.20;;;13.50;99.90;;;;;;4881613;29;20448;-94
2023/09/19 05:27:47;;;;;;;10.75;1.58;;;13.20;99.90;;;;;;4885170;29;20441;-94
2023/09/19 05:30:14;;;;;;;9.45;1.27;;;13.40;99.90;;;;;;4881378;29;20432;-95
2023/09/19 05:32:40;;;;;;;9.35;1.10;;;13.50;99.90;;;;;;4880621;29;20769;-93
2023/09/19 05:35:09;;;;;;;10.88;1.13;;;13.50;99.90;;;;;;4880763;29;20418;-93
2023/09/19 05:37:36;;;;;;;7.70;1.00;;;13.50;99.90;;;;;;4884074;29;20432;-93
2023/09/19 05:40:06;;;;;;;8.95;1.02;;;13.70;99.90;;;;;;4882923;29;20688;-94
2023/09/19 05:42:38;;;;;;;8.43;1.00;;;13.60;99.90;;;;;;4885939;29;20418;-95
2023/09/19 05:45:12;;;;;;;10.38;1.00;;;13.50;99.90;;;;;;4864307;29;20425;-93
2023/09/19 05:47:45;;;;;;;8.20;0.75;;;13.80;99.90;;;;;;4877959;29;20445;-92
2023/09/19 05:50:14;;;;;;;9.27;1.40;;;13.80;99.90;;;;;;4879954;29;20425;-95
2023/09/19 05:52:44;;;;;;;8.77;0.90;;;13.70;99.90;;;;;;4880955;29;20419;-96
2023/09/19 05:55:10;;;;;;;7.25;0.88;;;13.70;99.90;;;;;;4881968;29;20932;-93
2023/09/19 05:57:41;;;;;;;8.45;0.90;;;13.90;99.90;;;;;;4887186;29;20505;-95
2023/09/19 06:00:19;;;;;;;7.85;1.23;;;13.80;99.90;;;;;;4889064;29;20781;-94
2023/09/19 06:02:44;;;;;;;8.98;0.93;;;13.80;99.90;;;;;;4882042;29;20432;-93
2023/09/19 06:05:13;;;;;;;13.47;1.70;;;14.00;99.90;;;;;;4884871;29;20409;-94
2023/09/19 06:07:41;;;;;;;10.02;1.30;;;13.90;99.90;;;;;;4883225;29;20441;-95
2023/09/19 06:10:10;;;;;;;6.85;0.77;;;13.90;99.90;;;;;;4884708;29;20413;-95
2023/09/19 06:12:39;;;;;;;9.75;1.15;;;14.10;99.90;;;;;;4884984;29;20413;-93
2023/09/19 06:15:15;;;;;;;8.87;1.23;;;14.20;99.90;;;;;;4882796;29;20806;-95
2023/09/19 06:17:55;;;;;;;7.33;0.80;;;14.20;99.90;;;;;;4883009;29;20963;-94
2023/09/19 06:20:22;;;;;;;8.93;0.83;;;14.40;99.90;;;;;;4875253;29;20784;-93
2023/09/19 06:22:48;;;;;;;11.48;1.50;;;14.30;99.90;;;;;;4879365;29;20793;-93
2023/09/19 06:25:19;;;;;;;7.68;1.20;;;14.60;99.90;;;;;;4886780;29;20406;-94
2023/09/19 06:27:56;;;;;;;8.70;1.07;;;14.60;99.90;;;;;;4877966;29;20579;-94
2023/09/19 06:30:26;;;;;;;8.68;1.00;;;14.40;99.90;;;;;;4880718;29;20825;-94
2023/09/19 06:33:03;;;;;;;7.93;0.80;;;14.70;99.90;;;;;;4900584;29;20429;-94
2023/09/19 06:35:33;;;;;;;9.43;0.85;;;14.60;99.90;;;;;;4878769;29;20409;-94
2023/09/19 06:37:58;;;;;;;11.10;1.20;;;14.30;99.90;;;;;;4878907;29;21136;-94
2023/09/19 06:40:24;;;;;;;6.40;0.82;;;14.60;99.90;;;;;;4878640;29;20409;-93
2023/09/19 06:42:52;;;;;;;9.43;1.10;;;14.80;99.90;;;;;;4877273;29;20420;-93
2023/09/19 06:45:18;;;;;;;9.88;1.10;;;14.60;99.90;;;;;;4879299;29;20409;-94
2023/09/19 06:47:50;;;;;;;9.18;0.98;;;14.60;99.90;;;;;;4879084;29;20445;-92
2023/09/19 06:50:18;;;;;;;7.15;0.60;;;14.80;99.90;;;;;;4877701;29;20507;-93
2023/09/19 06:52:45;;;;;;;9.45;0.80;;;14.80;99.90;;;;;;4877541;29;20420;-93
2023/09/19 06:55:13;;;;;;;9.10;1.20;;;14.90;99.90;;;;;;4877966;29;20444;-93
2023/09/19 06:57:40;;;;;;;6.03;0.73;;;14.90;99.90;;;;;;4877925;29;20473;-92
2023/09/19 07:00:15;;;;;;;6.60;0.70;;;15.00;99.90;;;;;;4877702;29;20410;-94
2023/09/19 07:02:46;;;;;;;9.70;0.87;;;15.00;99.90;;;;;;4877785;29;20473;-94
2023/09/19 07:05:12;;;;;;;7.75;0.90;;;15.10;99.90;;;;;;4877607;29;20427;-93
2023/09/19 07:07:37;;;;;;;7.40;1.02;;;15.20;99.90;;;;;;4877071;29;20433;-93
2023/09/19 07:10:05;;;;;;;8.43;1.03;;;15.40;99.90;;;;;;4877121;29;20427;-94
2023/09/19 07:12:32;;;;;;;7.80;0.82;;;15.30;99.90;;;;;;4878310;29;20468;-93
2023/09/19 07:15:05;;;;;;;9.23;1.10;;;15.50;99.90;;;;;;4879174;29;20421;-94
2023/09/19 07:17:32;;;;;;;6.70;1.00;;;15.50;99.90;;;;;;4862751;29;20420;-92
2023/09/19 07:19:58;;;;;;;7.38;0.80;;;15.90;99.90;;;;;;4878625;29;20432;-92
2023/09/19 07:22:26;;;;;;;6.47;1.08;;;16.00;99.90;;;;;;4877765;29;20405;-90
2023/09/19 07:24:51;;;;;;;9.20;0.90;;;15.50;99.90;;;;;;4882490;29;20428;-93
2023/09/19 07:27:18;;;;;;;6.70;1.10;;;16.00;99.90;;;;;;4880713;29;20433;-94
2023/09/19 07:29:44;;;;;;;8.57;1.20;;;15.90;99.90;;;;;;4878891;29;20978;-93
2023/09/19 07:32:11;;;;;;;8.35;1.10;;;15.80;99.90;;;;;;4878490;29;20996;-93
2023/09/19 07:34:40;;;;;;;6.32;1.20;;;16.20;99.90;;;;;;4862296;29;20421;-93
2023/09/19 07:37:06;;;;;;;10.40;1.42;;;16.00;99.90;;;;;;4878840;29;20418;-92
2023/09/19 07:39:32;;;;;;;8.32;1.20;;;16.00;99.90;;;;;;4880240;29;20413;-94
2023/09/19 07:42:21;;;;;;;8.48;0.95;;;16.40;99.90;;;;;;4881607;29;20916;-94
2023/09/19 07:44:53;;;;;;;9.63;1.40;;;16.20;99.90;;;;;;4878841;29;20413;-94
2023/09/19 07:47:23;;;;;;;8.38;0.95;;;16.20;99.90;;;;;;4900107;29;20437;-94
2023/09/19 07:49:51;;;;;;;8.75;1.20;;;16.30;99.90;;;;;;4881335;29;20449;-94
2023/09/19 07:52:17;;;;;;;8.95;1.15;;;16.40;99.90;;;;;;4877051;29;20861;-94
2023/09/19 07:55:08;;;;;;;9.20;1.17;;;16.40;99.90;;;;;;4886244;29;20397;-94
2023/09/19 07:57:41;;;;;;;10.68;1.20;;;16.40;99.90;;;;;;4885429;29;20433;-94
2023/09/19 08:00:12;;;;;;;10.00;1.23;;;16.20;99.90;;;;;;4884151;29;20464;-95
2023/09/19 08:02:39;;;;;;;9.80;1.20;;;16.50;99.90;;;;;;4885452;29;21013;-94
2023/09/19 08:05:15;;;;;;;10.75;1.65;;;17.10;99.90;;;;;;4886824;29;20420;-94
2023/09/19 08:07:42;;;;;;;10.43;1.65;;;16.50;99.90;;;;;;4880632;29;20459;-95
2023/09/19 08:10:21;;;;;;;9.68;1.60;;;16.70;99.90;;;;;;4887668;29;20426;-93
2023/09/19 08:12:48;;;;;;;8.25;1.52;;;16.60;99.90;;;;;;4885597;29;20417;-94
2023/09/19 08:15:21;;;;;;;6.50;0.90;;;16.70;99.90;;;;;;4883440;29;20500;-93
2023/09/19 08:17:48;;;;;;;8.15;1.40;;;16.80;99.90;;;;;;4880484;29;20420;-93
2023/09/19 08:20:19;;;;;;;9.82;1.45;;;16.60;99.90;;;;;;4882477;29;20429;-93
2023/09/19 08:22:54;;;;;;;9.43;0.90;;;16.70;99.90;;;;;;4883718;29;20428;-93
2023/09/19 08:25:21;;;;;;;7.70;1.13;;;16.90;99.90;;;;;;4884456;29;20429;-94
2023/09/19 08:27:52;;;;;;;11.90;1.50;;;16.80;99.90;;;;;;4882913;29;20457;-94
2023/09/19 08:30:40;;;;;;;;;;;;;;;;;;;;;
2023/09/19 08:33:09;;;;;;;8.87;1.47;;;17.10;99.90;;;;;;4905046;29;20393;-93
2023/09/19 08:35:45;;;;;;;8.93;1.30;;;17.20;99.90;;;;;;4889452;29;20405;-94
2023/09/19 08:38:35;;;;;;;9.30;1.77;;;17.80;99.90;;;;;;4889128;29;20437;-95
2023/09/19 08:41:06;;;;;;;8.82;1.33;;;17.70;99.90;;;;;;4796588;29;20524;-95
2023/09/19 08:44:01;;;;;;;8.63;1.27;;;17.90;99.90;;;;;;4880659;29;20413;-94
2023/09/19 08:46:53;;;;;;;8.60;1.15;;;18.20;99.90;;;;;;4886209;29;20476;-94
2023/09/19 08:49:44;;;;;;;7.88;1.25;;;18.00;99.90;;;;;;4870931;29;20480;-95
2023/09/19 08:52:27;;;;;;;9.05;1.48;;;17.90;99.90;;;;;;4886641;29;20425;-94
2023/09/19 08:55:13;;;;;;;8.88;1.27;;;18.20;99.90;;;;;;4884412;29;20830;-93
2023/09/19 08:58:03;;;;;;;8.18;1.65;;;18.00;99.90;;;;;;4883863;29;20425;-95
2023/09/19 09:00:30;;;;;;;8.70;1.60;;;18.70;99.90;;;;;;4884362;29;20417;-95
2023/09/19 09:03:00;;;;;;;11.95;1.52;;;18.30;99.90;;;;;;4885351;29;20414;-94
2023/09/19 09:05:34;;;;;;;7.70;1.10;;;18.00;99.90;;;;;;4883422;29;21051;-93
2023/09/19 09:08:13;;;;;;;9.90;1.58;;;18.50;99.90;;;;;;4888409;29;21006;-94
2023/09/19 09:10:51;;;;;;;9.18;1.38;;;18.20;99.90;;;;;;4882303;29;20477;-95
2023/09/19 09:13:29;;;;;;;;;;;;;;;;;;;;;
2023/09/19 09:19:12;;;;;;;8.68;1.55;;;18.10;99.90;;;;;;4911113;29;20461;-93
2023/09/19 09:21:38;;;;;;;8.53;1.67;;;18.50;99.90;;;;;;4879861;29;20430;-93
2023/09/19 09:24:30;;;;;;;9.48;1.42;;;18.20;99.90;;;;;;4879755;29;20420;-92
2023/09/19 09:26:59;;;;;;;7.80;1.30;;;18.40;99.90;;;;;;4880314;29;20429;-92
2023/09/19 09:29:51;;;;;;;12.63;1.65;;;18.40;99.90;;;;;;4877814;29;20427;-91
2023/09/19 09:32:28;;;;;;;9.25;1.35;;;18.40;99.90;;;;;;4880922;29;20635;-91
2023/09/19 09:34:56;;;;;;;11.57;1.92;;;18.50;99.90;;;;;;4879180;29;20547;-93
2023/09/19 09:37:24;;;;;;;11.25;1.60;;;18.80;99.90;;;;;;4880235;29;20421;-92
2023/09/19 09:39:56;;;;;;;8.20;1.35;;;18.70;99.90;;;;;;4880172;29;20516;-93
2023/09/19 09:42:32;;;;;;;10.77;1.50;;;19.30;99.90;;;;;;4877934;29;20968;-90
2023/09/19 09:48:03;;;;;;;9.55;1.83;;;19.00;99.90;;;;;;4845769;29;20481;-91
2023/09/19 09:50:50;;;;;;;10.93;1.58;;;19.20;99.90;;;;;;4878461;29;20476;-92
2023/09/19 09:53:32;;;;;;;9.45;1.50;;;19.00;99.90;;;;;;4879876;29;20427;-91
2023/09/19 09:56:09;;;;;;;10.48;1.60;;;19.00;99.90;;;;;;4877533;29;20425;-91
2023/09/19 09:58:51;;;;;;;9.27;1.60;;;19.10;99.90;;;;;;4879292;29;20414;-91
2023/09/19 10:01:17;;;;;;;10.85;1.70;;;18.90;99.90;;;;;;4879946;29;20512;-91
2023/09/19 10:03:51;;;;;;;8.85;1.58;;;18.90;99.90;;;;;;4877125;29;20421;-93
2023/09/19 10:09:11;;;;;;;12.05;1.70;;;19.30;99.90;;;;;;4893019;29;20779;-93
2023/09/19 10:11:45;;;;;;;10.90;1.65;;;19.40;99.90;;;;;;4879723;29;20425;-93
2023/09/19 10:14:20;;;;;;;13.80;1.83;;;19.50;99.90;;;;;;4878899;29;20843;-93
2023/09/19 10:16:50;;;;;;;11.20;2.20;;;19.40;99.90;;;;;;4876918;29;20416;-94
2023/09/19 10:19:33;;;;;;;11.35;1.75;;;19.60;99.90;;;;;;4879402;29;20460;-94
2023/09/19 10:22:04;;;;;;;12.55;2.20;;;19.70;99.90;;;;;;4877270;29;20921;-91
2023/09/19 10:24:33;;;;;;;8.98;1.70;;;19.50;99.90;;;;;;4880578;29;20842;-92
2023/09/19 10:27:00;;;;;;;11.18;1.88;;;19.80;99.90;;;;;;4878731;29;20825;-92
2023/09/19 10:29:31;;;;;;;12.13;2.30;;;19.50;99.90;;;;;;4879340;29;20429;-95
2023/09/19 10:31:58;;;;;;;11.07;1.73;;;19.60;99.90;;;;;;4879146;29;20501;-92
2023/09/19 10:34:26;;;;;;;9.52;1.92;;;19.80;99.90;;;;;;4877272;29;20413;-92
2023/09/19 10:36:53;;;;;;;11.50;2.55;;;19.70;99.90;;;;;;4879471;29;20424;-91
2023/09/19 10:39:19;;;;;;;12.57;1.77;;;19.70;99.90;;;;;;4877274;29;20413;-92
2023/09/19 10:41:53;;;;;;;10.23;1.83;;;19.50;99.90;;;;;;4879375;29;21062;-92
2023/09/19 10:44:26;;;;;;;9.63;2.10;;;19.40;99.90;;;;;;4877785;29;20429;-92
2023/09/19 10:46:55;;;;;;;9.93;2.00;;;19.40;99.90;;;;;;4878032;29;20428;-91
2023/09/19 10:49:22;;;;;;;12.23;2.63;;;19.30;99.90;;;;;;4879005;29;20959;-90
2023/09/19 10:51:51;;;;;;;9.33;2.57;;;19.80;99.90;;;;;;4876968;29;20406;-92
2023/09/19 10:54:26;;;;;;;11.15;1.95;;;19.40;99.90;;;;;;4879699;29;20413;-91
2023/09/19 10:56:52;;;;;;;10.68;1.75;;;19.40;99.90;;;;;;4876974;29;20508;-91
2023/09/19 10:59:20;;;;;;;12.00;2.27;;;19.00;99.90;;;;;;4879083;29;20428;-91
2023/09/19 11:01:51;;;;;;;9.43;2.15;;;18.90;99.90;;;;;;4877654;29;20424;-90
2023/09/19 11:04:30;;;;;;;11.27;2.35;;;18.90;99.90;;;;;;4877983;29;20425;-92
2023/09/19 11:07:15;;;;;;;10.70;1.70;;;18.50;99.90;;;;;;4878689;29;20417;-92
2023/09/19 11:09:54;;;;;;;11.52;2.55;;;18.60;99.90;;;;;;4877516;29;20873;-91
2023/09/19 11:12:32;;;;;;;12.48;2.30;;;18.60;99.90;;;;;;4879465;29;20425;-92
2023/09/19 11:15:07;;;;;;;10.82;2.17;;;18.70;99.90;;;;;;4878845;29;20414;-92
2023/09/19 11:17:41;;;;;;;10.50;2.05;;;19.10;99.90;;;;;;4877817;29;20421;-89
2023/09/19 11:22:53;;;;;;;9.60;1.63;;;19.20;99.90;;;;;;4892341;29;20473;-90
2023/09/19 11:25:32;;;;;;;11.73;2.53;;;19.10;99.90;;;;;;4879116;29;20920;-92
2023/09/19 11:28:08;;;;;;;10.00;1.63;;;19.30;99.90;;;;;;4879872;29;20448;-92
2023/09/19 11:30:38;;;;;;;8.35;1.85;;;18.90;99.90;;;;;;4882397;29;20926;-91
2023/09/19 11:33:28;;;;;;;9.93;1.88;;;19.00;99.90;;;;;;4882395;29;20847;-94
2023/09/19 11:36:19;;;;;;;11.27;2.03;;;18.90;99.90;;;;;;4896040;29;20436;-92
2023/09/19 11:38:45;;;;;;;12.13;2.10;;;18.90;99.90;;;;;;4897986;29;20425;-90
2023/09/19 11:41:26;;;;;;;12.35;1.98;;;19.00;99.90;;;;;;4881205;29;20425;-93
2023/09/19 11:43:58;;;;;;;10.82;2.22;;;18.80;99.90;;;;;;4881267;29;20428;-90
2023/09/19 11:46:25;;;;;;;10.23;2.30;;;18.60;99.90;;;;;;4882525;29;20789;-92
2023/09/19 11:48:51;;;;;;;10.40;2.10;;;19.00;99.90;;;;;;4880092;29;20441;-92
2023/09/19 11:51:23;;;;;;;11.88;2.22;;;18.50;99.90;;;;;;4881789;29;20524;-92
2023/09/19 11:53:52;;;;;;;12.05;2.10;;;18.60;99.90;;;;;;4879634;29;20499;-96
2023/09/19 11:56:23;;;;;;;8.23;1.75;;;18.50;99.90;;;;;;4881956;29;20888;-91
2023/09/19 11:58:54;;;;;;;12.10;1.90;;;18.60;99.90;;;;;;4880683;29;20512;-93
2023/09/19 12:01:28;;;;;;;11.18;1.88;;;18.30;99.90;;;;;;4880630;29;20424;-92
2023/09/19 12:03:59;;;;;;;10.30;2.25;;;18.30;99.90;;;;;;4881451;29;20464;-91
2023/09/19 12:06:38;;;;;;;12.33;1.97;;;18.70;99.90;;;;;;4879418;29;20417;-89
2023/09/19 12:09:10;;;;;;;10.35;2.28;;;18.70;99.90;;;;;;4880502;29;20504;-91
2023/09/19 12:11:44;;;;;;;10.15;1.73;;;18.20;99.90;;;;;;4894911;29;20590;-87
2023/09/19 12:14:10;;;;;;;13.95;3.22;;;18.00;99.90;;;;;;4894853;29;20429;-89
2023/09/19 12:16:36;;;;;;;11.38;2.80;;;17.80;99.90;;;;;;4880897;29;20572;-91
2023/09/19 12:19:22;;;;;;;12.20;2.92;;;17.60;99.90;;;;;;4878857;29;20806;-90
2023/09/19 12:21:59;;;;;;;13.15;4.35;;;17.40;99.90;;;;;;4896744;29;20424;-92
2023/09/19 12:24:29;;;;;;;14.30;4.10;;;17.40;99.90;;;;;;4879549;29;20432;-91
2023/09/19 12:27:06;;;;;;;12.38;3.03;;;17.50;99.90;;;;;;4881897;29;20425;-92
2023/09/19 12:29:41;;;;;;;11.93;2.60;;;17.60;99.90;;;;;;4880507;29;20463;-91
2023/09/19 12:32:07;;;;;;;11.77;2.22;;;17.80;99.90;;;;;;4878803;29;20413;-91
2023/09/19 12:34:42;;;;;;;10.15;2.17;;;18.10;99.90;;;;;;4881248;29;20516;-90
2023/09/19 12:37:29;;;;;;;11.45;2.22;;;17.80;99.90;;;;;;4894523;29;20835;-93
2023/09/19 12:40:22;;;;;;;14.30;2.40;;;17.90;99.90;;;;;;4880713;29;21079;-89
2023/09/19 12:42:49;;;;;;;7.88;1.60;;;18.30;99.90;;;;;;4881140;29;20504;-91
2023/09/19 12:45:17;;;;;;;8.20;1.55;;;17.90;99.90;;;;;;4879307;29;20781;-91
2023/09/19 12:48:20;;;;;;;9.48;1.42;;;17.90;99.90;;;;;;4881482;29;20440;-91
2023/09/19 12:51:05;;;;;;;8.38;1.48;;;17.80;99.90;;;;;;4880088;29;20853;-89
2023/09/19 12:53:43;;;;;;;6.45;1.30;;;17.80;99.90;;;;;;4895181;29;20809;-91
2023/09/19 12:56:14;;;;;;;7.65;1.35;;;17.60;99.90;;;;;;4880953;29;20421;-91
2023/09/19 12:58:56;;;;;;;8.68;1.20;;;17.90;99.90;;;;;;4879136;29;20421;-92
2023/09/19 13:01:29;;;;;;;8.65;1.50;;;17.60;99.90;;;;;;4880862;29;20409;-93
2023/09/19 13:04:26;;;;;;;7.53;1.17;;;17.50;99.90;;;;;;4880469;29;20440;-94
2023/09/19 13:06:52;;;;;;;9.50;1.42;;;17.60;99.90;;;;;;4878545;29;20428;-92
2023/09/19 13:09:24;;;;;;;8.35;1.45;;;17.60;99.90;;;;;;4880567;29;20793;-93
2023/09/19 13:11:50;;;;;;;8.02;1.70;;;17.70;99.90;;;;;;4877975;29;20563;-91
2023/09/19 13:14:18;;;;;;;6.38;1.33;;;17.70;99.90;;;;;;4880333;29;20441;-93
2023/09/19 13:17:04;;;;;;;7.80;1.20;;;18.00;99.90;;;;;;4878157;29;20422;-90